Time;durP1;ratioP1;P1;durP2;ratioP2;P2;SDS_P1;SDS_P2;PMS_P1;PMS_P2;Temp;Humidity;BMP_temperature;BMP_pressure;BME280_temperature;BME280_humidity;BME280_pressure;Samples;Min_cycle;Max_cycle;Signal;HPM_P1;HPM_P2
2021/06/16 00:01:37;;;;;;;9.35;8.23;;;;;;;23.75;51.00;100502.34;5062262;28;20041;-62
2021/06/16 00:04:05;;;;;;;14.73;8.02;;;;;;;23.77;50.99;100504.88;5067176;28;20044;-62
2021/06/16 00:06:34;;;;;;;9.90;8.38;;;;;;;23.62;51.58;100503.75;5065676;28;20033;-62
2021/06/16 00:09:04;;;;;;;10.82;9.02;;;;;;;23.56;51.65;100499.88;5069565;28;20044;-62
2021/06/16 00:11:31;;;;;;;9.80;7.63;;;;;;;23.60;51.70;100503.91;5068846;28;20052;-62
2021/06/16 00:13:59;;;;;;;11.63;8.90;;;;;;;23.58;51.36;100505.03;5071619;28;20044;-62
2021/06/16 00:16:26;;;;;;;13.20;8.52;;;;;;;23.51;52.05;100503.00;5071922;28;20044;-62
2021/06/16 00:18:53;;;;;;;10.88;8.18;;;;;;;23.57;51.45;100488.22;5047398;28;20048;-62
2021/06/16 00:21:20;;;;;;;11.93;8.55;;;;;;;23.49;51.81;100490.84;5054091;28;20040;-62
2021/06/16 00:23:48;;;;;;;10.65;9.55;;;;;;;23.54;51.43;100493.84;5062325;28;20048;-62
2021/06/16 00:26:16;;;;;;;11.95;8.40;;;;;;;23.50;51.75;100493.34;5069495;28;20075;-62
2021/06/16 00:28:42;;;;;;;10.15;9.02;;;;;;;23.52;50.97;100485.19;5067254;28;20106;-62
2021/06/16 00:31:10;;;;;;;13.90;8.43;;;;;;;23.52;51.71;100486.03;5070866;28;20037;-62
2021/06/16 00:33:37;;;;;;;9.95;8.98;;;;;;;23.48;51.49;100487.31;5070563;28;20064;-62
2021/06/16 00:36:04;;;;;;;9.27;7.80;;;;;;;23.47;51.31;100485.66;5061432;28;20079;-62
2021/06/16 00:38:31;;;;;;;11.43;8.13;;;;;;;23.47;51.24;100485.66;5047483;28;20045;-62
2021/06/16 00:40:58;;;;;;;9.10;7.78;;;;;;;23.46;51.08;100486.66;5047320;28;20091;-62
2021/06/16 00:43:25;;;;;;;13.85;8.57;;;;;;;23.48;51.23;100489.97;5047536;28;20041;-62
2021/06/16 00:45:51;;;;;;;10.38;7.53;;;;;;;23.50;51.01;100487.19;5047054;28;20048;-61
2021/06/16 00:48:19;;;;;;;12.88;7.95;;;;;;;23.53;51.09;100493.00;5047001;28;20045;-62
2021/06/16 00:50:45;;;;;;;12.68;8.00;;;;;;;23.49;50.93;100489.03;5047411;28;20041;-62
2021/06/16 00:53:12;;;;;;;11.77;8.23;;;;;;;23.50;51.35;100488.03;5047144;28;20488;-62
2021/06/16 00:55:39;;;;;;;9.88;8.98;;;;;;;23.50;51.56;100488.03;5047689;28;20041;-62
2021/06/16 00:58:07;;;;;;;12.30;9.27;;;;;;;23.49;51.00;100489.03;5045117;28;20057;-62
2021/06/16 01:00:40;;;;;;;11.73;9.07;;;;;;;23.48;51.16;100491.81;5047277;28;20053;-62
2021/06/16 01:03:12;;;;;;;10.80;9.68;;;;;;;23.54;50.03;100485.88;5046325;28;20061;-61
2021/06/16 01:05:40;;;;;;;12.43;10.55;;;;;;;23.42;50.20;100493.25;5036657;28;20478;-62
2021/06/16 01:08:07;;;;;;;13.98;9.15;;;;;;;23.39;50.31;100492.75;5044964;28;20045;-62
2021/06/16 01:10:40;;;;;;;12.30;10.65;;;;;;;23.31;50.72;100485.53;5047195;28;20572;-62
2021/06/16 01:13:48;;;;;;;10.85;9.80;;;;;;;23.32;50.61;100489.84;5045167;28;20041;-62
2021/06/16 01:16:42;;;;;;;12.35;11.25;;;;;;;23.30;50.04;100493.66;5005068;28;20425;-60
2021/06/16 01:19:35;;;;;;;12.80;10.80;;;;;;;23.26;50.77;100496.63;5047022;28;20124;-62
2021/06/16 01:22:11;;;;;;;14.32;10.75;;;;;;;23.23;50.72;100488.13;5046947;28;20549;-62
2021/06/16 01:24:41;;;;;;;17.10;10.77;;;;;;;23.27;50.65;100497.44;5047355;28;20056;-62
2021/06/16 01:27:08;;;;;;;15.50;10.70;;;;;;;23.21;50.85;100492.75;5047894;28;20094;-62
2021/06/16 01:29:37;;;;;;;13.10;11.38;;;;;;;23.24;50.75;100487.13;5046473;28;20479;-62
2021/06/16 01:32:07;;;;;;;13.45;11.73;;;;;;;23.17;50.43;100489.56;5047136;28;20041;-62
2021/06/16 01:34:34;;;;;;;12.32;10.50;;;;;;;23.13;50.57;100484.72;5047520;28;20103;-62
2021/06/16 01:37:01;;;;;;;15.45;10.82;;;;;;;23.21;50.58;100487.44;5047561;28;20029;-62
2021/06/16 01:39:34;;;;;;;14.93;12.57;;;;;;;23.19;50.72;100487.59;5047539;28;20051;-62
2021/06/16 01:42:07;;;;;;;11.90;10.70;;;;;;;23.16;50.69;100482.56;5047538;28;20048;-62
2021/06/16 01:44:35;;;;;;;24.65;11.30;;;;;;;23.14;51.17;100481.06;5046049;28;20045;-62
2021/06/16 01:47:02;;;;;;;12.20;9.70;;;;;;;23.11;51.72;100473.38;5047286;28;20603;-62
2021/06/16 01:49:29;;;;;;;16.75;9.23;;;;;;;23.13;51.67;100480.22;5047421;28;20037;-62
2021/06/16 01:51:58;;;;;;;12.95;9.30;;;;;;;23.10;52.06;100469.88;5046515;28;20045;-62
2021/06/16 01:54:27;;;;;;;9.82;8.60;;;;;;;23.08;52.80;100468.38;5046589;28;20037;-62
2021/06/16 01:56:56;;;;;;;14.82;8.77;;;;;;;23.06;52.98;100468.50;5044580;28;20052;-62
2021/06/16 01:59:23;;;;;;;9.23;8.07;;;;;;;23.07;53.10;100472.03;5045013;28;20051;-62
2021/06/16 02:01:51;;;;;;;10.35;8.70;;;;;;;23.04;53.44;100464.34;5044630;28;20044;-62
2021/06/16 02:04:18;;;;;;;9.85;8.55;;;;;;;23.05;53.73;100458.03;5046103;28;20041;-62
2021/06/16 02:06:50;;;;;;;12.63;9.30;;;;;;;23.00;54.09;100458.47;5046524;28;20049;-62
2021/06/16 02:09:19;;;;;;;11.63;8.48;;;;;;;22.97;54.24;100459.63;5044885;28;20037;-62
2021/06/16 02:11:45;;;;;;;10.48;9.35;;;;;;;22.96;54.58;100457.13;5045110;28;20029;-62
2021/06/16 02:14:17;;;;;;;12.63;9.43;;;;;;;22.97;54.45;100458.78;5045112;28;20041;-62
2021/06/16 02:16:52;;;;;;;13.40;8.98;;;;;;;22.98;54.00;100455.97;5045035;28;20095;-62
2021/06/16 02:19:22;;;;;;;51.78;11.05;;;;;;;22.98;54.23;100455.16;5046302;28;20474;-62
2021/06/16 02:21:52;;;;;;;14.13;10.02;;;;;;;22.92;54.33;100453.09;5046626;28;20474;-62
2021/06/16 02:24:19;;;;;;;10.13;8.88;;;;;;;22.97;54.49;100451.66;5045370;28;20041;-62
2021/06/16 02:26:45;;;;;;;12.85;8.93;;;;;;;22.97;54.45;100451.66;5046143;28;20045;-62
2021/06/16 02:29:12;;;;;;;10.80;9.23;;;;;;;22.96;54.54;100454.47;5046061;28;20041;-62
2021/06/16 02:31:41;;;;;;;17.50;8.93;;;;;;;22.98;54.86;100448.00;5046173;28;20044;-62
2021/06/16 02:34:08;;;;;;;15.23;9.65;;;;;;;22.96;54.61;100447.34;5045663;28;20087;-62
2021/06/16 02:36:39;;;;;;;15.32;9.48;;;;;;;22.96;54.60;100439.34;5045961;28;20087;-62
2021/06/16 02:39:11;;;;;;;12.07;10.00;;;;;;;22.98;55.00;100447.16;5045739;28;20095;-62
2021/06/16 02:41:39;;;;;;;13.45;9.95;;;;;;;22.93;55.19;100434.34;5045948;28;20550;-62
2021/06/16 02:44:06;;;;;;;13.52;8.88;;;;;;;22.92;55.54;100435.31;5045496;28;20494;-62
2021/06/16 02:46:35;;;;;;;11.63;9.73;;;;;;;22.94;55.67;100436.00;5047289;28;20041;-62
2021/06/16 02:49:04;;;;;;;10.57;9.52;;;;;;;22.97;55.60;100435.69;5049566;28;20179;-62
2021/06/16 02:51:32;;;;;;;9.23;8.43;;;;;;;22.94;55.55;100440.47;5049730;28;20132;-62
2021/06/16 02:54:01;;;;;;;12.25;9.30;;;;;;;22.78;56.94;100442.94;5050134;28;20045;-62
2021/06/16 02:56:28;;;;;;;13.00;9.50;;;;;;;22.79;56.56;100444.63;5049251;28;20095;-62
2021/06/16 02:58:56;;;;;;;14.30;10.60;;;;;;;22.81;56.52;100451.47;5049448;28;20037;-62
2021/06/16 03:01:23;;;;;;;13.27;9.93;;;;;;;22.77;56.15;100444.78;5049209;28;20044;-62
2021/06/16 03:03:51;;;;;;;11.65;10.43;;;;;;;22.77;56.41;100441.28;5051440;28;20029;-62
2021/06/16 03:06:21;;;;;;;11.38;10.27;;;;;;;22.69;56.76;100444.66;5049847;28;20095;-62
2021/06/16 03:08:51;;;;;;;12.38;9.43;;;;;;;22.68;56.79;100451.81;5050975;28;20049;-62
2021/06/16 03:11:18;;;;;;;13.32;12.02;;;;;;;22.54;56.67;100452.34;5048728;28;20131;-62
2021/06/16 03:13:47;;;;;;;15.00;13.68;;;;;;;22.31;57.09;100453.72;5049360;28;20479;-62
2021/06/16 03:16:15;;;;;;;16.17;12.63;;;;;;;22.19;56.96;100458.38;5049008;28;20037;-61
2021/06/16 03:18:44;;;;;;;13.60;12.18;;;;;;;22.25;56.92;100462.25;5049085;28;20041;-62
2021/06/16 03:21:13;;;;;;;13.85;12.43;;;;;;;22.33;56.27;100449.09;5049144;28;20048;-62
2021/06/16 03:23:42;;;;;;;16.27;12.77;;;;;;;22.32;55.42;100453.59;5049196;28;20083;-62
2021/06/16 03:26:09;;;;;;;17.92;16.10;;;;;;;22.29;54.70;100453.84;5049147;28;20038;-62
2021/06/16 03:28:37;;;;;;;20.00;15.80;;;;;;;22.27;55.39;100458.50;5047770;28;20037;-62
2021/06/16 03:31:05;;;;;;;17.55;15.57;;;;;;;22.27;55.16;100449.69;5048526;28;20510;-62
2021/06/16 03:33:32;;;;;;;19.80;16.88;;;;;;;22.28;55.37;100452.19;5048475;28;20041;-62
2021/06/16 03:36:00;;;;;;;20.70;16.73;;;;;;;22.26;55.31;100454.13;5048556;28;20400;-62
2021/06/16 03:38:26;;;;;;;25.30;17.83;;;;;;;22.24;55.52;100456.13;5048336;28;20040;-62
2021/06/16 03:40:55;;;;;;;19.13;17.27;;;;;;;22.07;56.24;100464.81;5049156;28;20081;-62
2021/06/16 03:43:23;;;;;;;20.55;15.60;;;;;;;22.13;56.71;100458.97;5048150;28;20033;-62
2021/06/16 03:45:51;;;;;;;18.35;16.52;;;;;;;22.16;56.58;100459.53;5050036;28;20041;-62
2021/06/16 03:48:20;;;;;;;17.25;15.55;;;;;;;22.13;56.79;100466.94;5049492;28;20037;-62
2021/06/16 03:50:48;;;;;;;17.33;15.50;;;;;;;22.12;57.23;100459.94;5049757;28;20118;-62
2021/06/16 03:53:17;;;;;;;16.58;14.93;;;;;;;22.13;57.70;100469.59;5049663;28;20049;-62
2021/06/16 03:55:46;;;;;;;18.38;14.88;;;;;;;22.21;57.55;100462.56;5049349;28;20037;-62
2021/06/16 03:58:14;;;;;;;16.92;15.27;;;;;;;22.26;57.65;100463.94;5047964;28;20045;-62
2021/06/16 04:00:42;;;;;;;16.08;14.57;;;;;;;22.32;57.46;100468.66;5048143;28;20082;-62
2021/06/16 04:03:13;;;;;;;16.85;14.85;;;;;;;22.36;57.68;100464.72;5047843;28;20049;-62
2021/06/16 04:05:41;;;;;;;17.83;14.93;;;;;;;22.41;57.96;100473.09;5049014;28;20048;-62
2021/06/16 04:08:10;;;;;;;15.02;13.68;;;;;;;22.45;58.11;100475.31;5049255;28;20033;-62
2021/06/16 04:10:38;;;;;;;16.45;14.18;;;;;;;22.47;58.36;100480.47;5048845;28;20561;-62
2021/06/16 04:13:06;;;;;;;16.50;14.05;;;;;;;22.52;58.44;100490.66;5049392;28;20053;-62
2021/06/16 04:15:34;;;;;;;17.48;14.65;;;;;;;22.52;58.39;100480.84;5049275;28;20040;-62
2021/06/16 04:18:00;;;;;;;16.30;14.80;;;;;;;22.55;58.19;100490.38;5048457;28;20049;-61
2021/06/16 04:20:28;;;;;;;17.77;16.00;;;;;;;22.62;57.87;100486.13;5047812;28;20090;-62
2021/06/16 04:22:55;;;;;;;19.10;15.02;;;;;;;22.68;57.42;100486.34;5048014;28;20048;-62
2021/06/16 04:25:23;;;;;;;25.88;17.00;;;;;;;22.71;57.28;100490.56;5048267;28;20087;-62
2021/06/16 04:27:51;;;;;;;27.98;16.45;;;;;;;22.64;57.46;100490.31;5047841;28;20044;-62
2021/06/16 04:30:19;;;;;;;19.58;17.58;;;;;;;22.75;57.48;100497.25;5047853;28;20037;-62
2021/06/16 04:32:46;;;;;;;19.92;16.73;;;;;;;22.77;57.64;100510.38;5047960;28;20049;-62
2021/06/16 04:35:13;;;;;;;19.25;16.52;;;;;;;22.82;57.65;100498.31;5047990;28;20049;-62
2021/06/16 04:37:40;;;;;;;15.50;14.00;;;;;;;22.83;57.94;100496.50;5050893;28;20416;-65
2021/06/16 04:40:08;;;;;;;19.00;17.08;;;;;;;22.93;57.39;100502.63;5052479;28;20040;-62
2021/06/16 04:42:36;;;;;;;18.20;15.45;;;;;;;23.03;57.30;100508.69;5060266;28;20045;-62
2021/06/16 04:45:04;;;;;;;15.75;14.00;;;;;;;23.08;57.36;100498.44;5058293;28;20083;-62
2021/06/16 04:47:32;;;;;;;16.23;14.32;;;;;;;23.20;57.46;100507.88;5052834;28;20049;-61
2021/06/16 04:49:59;;;;;;;16.83;14.30;;;;;;;23.29;57.16;100505.28;5053773;28;20041;-61
2021/06/16 04:52:26;;;;;;;16.70;14.35;;;;;;;23.38;56.87;100502.53;5052750;28;20045;-61
2021/06/16 04:54:53;;;;;;;15.98;14.20;;;;;;;23.45;56.97;100508.94;5053083;28;20115;-61
2021/06/16 04:57:19;;;;;;;15.43;13.82;;;;;;;23.59;57.11;100501.38;5053227;28;20087;-62
2021/06/16 04:59:46;;;;;;;20.77;17.48;;;;;;;23.60;56.76;100503.06;5052278;28;20037;-61
2021/06/16 05:02:14;;;;;;;21.30;19.08;;;;;;;23.69;56.18;100499.50;5053210;28;20114;-62
2021/06/16 05:04:40;;;;;;;23.35;19.30;;;;;;;23.61;56.21;100504.72;5052732;28;20045;-61
2021/06/16 05:07:07;;;;;;;25.63;20.67;;;;;;;23.95;55.38;100503.00;5052078;28;20491;-62
2021/06/16 05:09:34;;;;;;;25.35;21.30;;;;;;;23.70;55.52;100504.69;5052392;28;20488;-62
2021/06/16 05:12:00;;;;;;;24.30;21.75;;;;;;;24.09;54.52;100498.09;5037940;28;20043;-61
2021/06/16 05:14:27;;;;;;;24.35;21.70;;;;;;;24.37;53.98;100502.25;5052310;28;20052;-62
2021/06/16 05:16:54;;;;;;;23.75;21.17;;;;;;;24.73;53.13;100504.75;5052856;28;20086;-62
2021/06/16 05:19:23;;;;;;;23.02;20.60;;;;;;;25.08;52.37;100509.84;5052779;28;20087;-61
2021/06/16 05:21:50;;;;;;;20.90;17.73;;;;;;;25.27;52.02;100507.88;5052041;28;20045;-61
2021/06/16 05:24:18;;;;;;;22.27;19.30;;;;;;;25.49;51.15;100509.03;5053030;28;20033;-61
2021/06/16 05:26:45;;;;;;;20.98;17.17;;;;;;;25.66;50.89;100509.88;5052329;28;20098;-61
2021/06/16 05:29:11;;;;;;;36.35;18.73;;;;;;;25.88;50.20;100503.84;5052381;28;20033;-61
2021/06/16 05:31:38;;;;;;;23.65;16.30;;;;;;;25.99;49.88;100503.50;5052476;28;20044;-61
2021/06/16 05:34:05;;;;;;;17.38;15.40;;;;;;;26.21;49.53;100507.31;5052554;28;20136;-62
2021/06/16 05:36:33;;;;;;;17.77;15.85;;;;;;;26.50;48.71;100513.91;5052402;28;20451;-62
2021/06/16 05:39:00;;;;;;;21.42;19.02;;;;;;;26.23;49.27;100513.31;5052375;28;20083;-62
2021/06/16 05:41:27;;;;;;;23.35;20.90;;;;;;;26.21;49.01;100514.50;5050878;28;20519;-61
2021/06/16 05:43:54;;;;;;;23.20;20.23;;;;;;;26.02;49.49;100511.19;5052074;28;20036;-62
2021/06/16 05:46:21;;;;;;;22.45;19.35;;;;;;;25.91;49.54;100511.53;5052491;28;20110;-61
2021/06/16 05:48:48;;;;;;;36.55;19.45;;;;;;;26.47;48.48;100512.41;5052696;28;20075;-61
2021/06/16 05:51:14;;;;;;;24.20;18.98;;;;;;;26.89;47.80;100512.03;5052282;28;20055;-61
2021/06/16 05:53:41;;;;;;;23.02;18.67;;;;;;;27.28;46.72;100518.34;5052055;28;20106;-61
2021/06/16 05:56:08;;;;;;;21.92;18.15;;;;;;;27.47;46.56;100506.31;5050811;28;20459;-62
2021/06/16 05:58:35;;;;;;;21.73;19.00;;;;;;;27.51;45.96;100508.44;5051620;28;20048;-61
2021/06/16 06:01:02;;;;;;;22.92;20.60;;;;;;;26.96;47.57;100519.38;5051783;28;20400;-62
2021/06/16 06:03:29;;;;;;;24.55;19.95;;;;;;;26.94;47.77;100511.50;5052288;28;20045;-62
2021/06/16 06:05:56;;;;;;;25.00;18.85;;;;;;;27.46;47.36;100512.69;5051157;28;20049;-63
2021/06/16 06:08:23;;;;;;;24.58;18.35;;;;;;;27.99;45.43;100510.88;5051768;28;20132;-61
2021/06/16 06:10:49;;;;;;;22.35;20.05;;;;;;;28.14;44.97;100507.19;5049829;28;20033;-61
2021/06/16 06:13:16;;;;;;;23.02;17.27;;;;;;;28.71;43.48;100508.38;5050879;28;20114;-59
2021/06/16 06:15:43;;;;;;;20.98;17.65;;;;;;;28.70;43.75;100510.19;5050753;28;20083;-59
2021/06/16 06:18:09;;;;;;;20.40;18.10;;;;;;;29.19;42.17;100514.06;5051940;28;20053;-60
2021/06/16 06:20:36;;;;;;;20.08;16.17;;;;;;;29.37;42.12;100517.13;5050729;28;20056;-61
2021/06/16 06:23:03;;;;;;;21.83;16.55;;;;;;;29.60;41.45;100516.13;5050414;28;20079;-61
2021/06/16 06:25:30;;;;;;;20.50;17.50;;;;;;;29.73;40.77;100514.38;5045122;28;20575;-62
2021/06/16 06:27:56;;;;;;;19.55;17.55;;;;;;;30.10;40.20;100512.34;5046397;28;20107;-62
2021/06/16 06:30:23;;;;;;;24.63;17.20;;;;;;;30.07;40.09;100514.59;5046547;28;20061;-62
2021/06/16 06:32:50;;;;;;;19.58;17.38;;;;;;;30.22;39.37;100509.97;5047395;28;20037;-62
2021/06/16 06:35:17;;;;;;;17.92;15.95;;;;;;;30.19;39.45;100507.66;5046886;28;20095;-61
2021/06/16 06:37:44;;;;;;;27.88;19.73;;;;;;;30.19;39.17;100505.81;5047830;28;20550;-62
2021/06/16 06:40:11;;;;;;;14.80;13.40;;;;;;;30.45;38.49;100513.19;5048792;28;20648;-62
2021/06/16 06:42:37;;;;;;;18.27;16.38;;;;;;;29.81;39.61;100520.63;5046993;28;20068;-62
2021/06/16 06:45:08;;;;;;;18.70;16.90;;;;;;;29.46;41.08;100517.84;5047458;28;20098;-61
2021/06/16 06:47:35;;;;;;;19.15;15.77;;;;;;;29.71;41.39;100505.66;5055605;28;20116;-62
2021/06/16 06:50:03;;;;;;;17.02;14.75;;;;;;;29.47;41.43;100522.19;5065165;28;20049;-62
2021/06/16 06:52:30;;;;;;;21.40;14.50;;;;;;;29.79;40.54;100509.25;5047425;28;20095;-61
2021/06/16 06:54:58;;;;;;;23.75;14.32;;;;;;;29.84;40.16;100507.63;5048470;28;20371;-62
2021/06/16 06:57:25;;;;;;;16.73;15.07;;;;;;;29.99;39.82;100500.31;5048112;28;20065;-62
2021/06/16 06:59:52;;;;;;;13.30;12.00;;;;;;;29.95;40.21;100506.25;5048412;28;20083;-62
2021/06/16 07:02:18;;;;;;;19.38;13.15;;;;;;;30.11;40.01;100511.31;5048103;28;20424;-62
2021/06/16 07:04:45;;;;;;;17.75;15.85;;;;;;;30.15;40.14;100512.63;5047918;28;20580;-62
2021/06/16 07:07:12;;;;;;;24.67;15.15;;;;;;;30.66;39.74;100512.22;5047615;28;20059;-62
2021/06/16 07:09:39;;;;;;;18.98;14.05;;;;;;;30.73;39.25;100514.97;5047981;28;20033;-62
2021/06/16 07:12:06;;;;;;;25.23;13.13;;;;;;;30.91;39.31;100517.13;5048266;28;20286;-62
2021/06/16 07:14:36;;;;;;;16.63;13.45;;;;;;;31.44;37.93;100514.53;5046367;28;20032;-62
2021/06/16 07:17:03;;;;;;;15.43;12.52;;;;;;;31.34;37.60;100508.72;5047080;28;20043;-62
2021/06/16 07:19:30;;;;;;;17.92;14.20;;;;;;;30.87;38.36;100515.84;5047948;28;20053;-62
2021/06/16 07:21:57;;;;;;;18.10;12.23;;;;;;;31.37;38.19;100509.13;5045878;28;20079;-62
2021/06/16 07:24:24;;;;;;;13.88;12.27;;;;;;;31.38;38.66;100515.38;5047326;28;20115;-62
2021/06/16 07:26:51;;;;;;;15.73;11.98;;;;;;;31.85;37.48;100514.31;5063063;28;20045;-62
2021/06/16 07:29:18;;;;;;;21.90;13.75;;;;;;;31.35;38.27;100515.75;5047278;28;20087;-62
2021/06/16 07:31:45;;;;;;;19.33;13.68;;;;;;;31.34;38.42;100519.50;5063140;28;20044;-62
2021/06/16 07:34:12;;;;;;;15.75;14.10;;;;;;;31.02;39.06;100511.13;5048144;28;20102;-62
2021/06/16 07:36:38;;;;;;;20.73;14.57;;;;;;;31.11;38.66;100511.75;5048161;28;20069;-60
2021/06/16 07:39:06;;;;;;;19.10;14.73;;;;;;;31.44;37.94;100514.53;5049022;28;20045;-62
2021/06/16 07:41:34;;;;;;;16.02;14.25;;;;;;;31.48;37.20;100518.44;5047130;28;20049;-62
2021/06/16 07:44:01;;;;;;;19.20;11.52;;;;;;;32.02;37.22;100517.44;5045347;28;20041;-62
2021/06/16 07:46:28;;;;;;;21.00;12.63;;;;;;;32.16;37.11;100521.72;5046595;28;20487;-63
2021/06/16 07:48:55;;;;;;;21.15;13.32;;;;;;;32.49;36.76;100518.97;5052090;28;20045;-62
2021/06/16 07:51:22;;;;;;;16.23;14.50;;;;;;;32.03;36.34;100519.91;5048677;28;20032;-64
2021/06/16 07:53:49;;;;;;;17.67;15.38;;;;;;;32.23;36.11;100519.88;5051778;28;20045;-64
2021/06/16 07:56:16;;;;;;;19.10;13.85;;;;;;;32.29;35.51;100518.19;5048626;28;20080;-64
2021/06/16 07:58:42;;;;;;;20.83;11.98;;;;;;;32.18;36.61;100522.38;5046718;28;20044;-64
2021/06/16 08:01:09;;;;;;;23.75;18.40;;;;;;;31.89;36.85;100520.97;5047114;28;20083;-64
2021/06/16 08:03:36;;;;;;;25.67;19.17;;;;;;;32.38;35.86;100519.63;5046453;28;20045;-63
2021/06/16 08:06:02;;;;;;;24.70;15.63;;;;;;;32.78;35.52;100522.16;5045673;28;20049;-63
2021/06/16 08:08:32;;;;;;;26.65;17.35;;;;;;;32.38;36.06;100516.94;5046523;28;20037;-61
2021/06/16 08:11:01;;;;;;;23.52;17.58;;;;;;;32.46;35.50;100516.69;5046517;28;20507;-61
2021/06/16 08:13:30;;;;;;;22.83;16.48;;;;;;;32.41;36.31;100521.09;5046603;28;20036;-63
2021/06/16 08:15:56;;;;;;;16.25;12.75;;;;;;;32.60;36.72;100520.19;5046659;28;20037;-63
2021/06/16 08:18:23;;;;;;;19.05;14.80;;;;;;;31.86;37.01;100523.25;5046214;28;20545;-63
2021/06/16 08:20:51;;;;;;;23.60;17.75;;;;;;;32.14;36.79;100523.00;5046526;28;20087;-63
2021/06/16 08:23:18;;;;;;;21.55;15.50;;;;;;;32.64;36.21;100509.78;5046819;28;20496;-63
2021/06/16 08:25:45;;;;;;;34.20;19.20;;;;;;;32.30;35.87;100517.13;5048115;28;20037;-63
2021/06/16 08:28:12;;;;;;;21.98;16.02;;;;;;;31.99;36.53;100517.84;5046039;28;20083;-63
2021/06/16 08:30:38;;;;;;;23.42;16.75;;;;;;;32.36;36.71;100518.19;5046622;28;20041;-63
2021/06/16 08:33:08;;;;;;;25.70;17.38;;;;;;;31.89;37.29;100520.13;5048115;28;20079;-63
2021/06/16 08:35:34;;;;;;;19.27;14.52;;;;;;;32.16;37.28;100516.34;5047445;28;20075;-63
2021/06/16 08:38:02;;;;;;;15.23;13.45;;;;;;;32.11;37.40;100521.53;5046925;28;20434;-62
2021/06/16 08:40:29;;;;;;;21.05;14.55;;;;;;;32.17;36.67;100515.28;5049281;28;20033;-63
2021/06/16 08:42:56;;;;;;;14.52;12.73;;;;;;;32.08;37.05;100519.28;5046159;28;20103;-63
2021/06/16 08:45:22;;;;;;;21.65;12.63;;;;;;;31.75;37.54;100522.81;5045195;28;21685;-63
2021/06/16 08:47:50;;;;;;;11.95;10.80;;;;;;;31.95;36.87;100516.59;5047951;28;20067;-63
2021/06/16 08:50:18;;;;;;;20.45;11.57;;;;;;;32.40;35.51;100517.56;5049016;28;20044;-63
2021/06/16 08:52:46;;;;;;;16.25;12.40;;;;;;;32.00;36.93;100508.69;5045766;28;20037;-63
2021/06/16 08:55:17;;;;;;;15.60;11.13;;;;;;;31.87;37.23;100508.75;5061204;28;20107;-63
2021/06/16 08:57:44;;;;;;;15.02;12.73;;;;;;;31.70;37.39;100509.16;5045637;28;20407;-63
2021/06/16 09:00:13;;;;;;;11.70;10.52;;;;;;;31.78;37.26;100511.59;5045698;28;20037;-62
2021/06/16 09:02:41;;;;;;;12.85;9.32;;;;;;;31.48;37.08;100511.22;5046157;28;20187;-63
2021/06/16 09:05:08;;;;;;;13.73;10.38;;;;;;;31.62;36.90;100512.03;5046287;28;20048;-63
2021/06/16 09:07:37;;;;;;;13.00;9.43;;;;;;;31.37;37.60;100511.00;5047352;28;20381;-63
2021/06/16 09:10:12;;;;;;;12.95;9.57;;;;;;;31.60;37.51;100514.13;5047165;28;20048;-62
2021/06/16 09:12:53;;;;;;;11.32;7.63;;;;;;;31.64;37.15;100509.97;5045183;28;20063;-63
2021/06/16 09:15:22;;;;;;;8.70;6.85;;;;;;;31.35;37.62;100516.59;5046363;28;20047;-63
2021/06/16 09:18:17;;;;;;;13.23;8.88;;;;;;;31.13;37.13;100510.53;5045168;28;20039;-63
2021/06/16 09:20:47;;;;;;;15.05;7.90;;;;;;;31.18;37.67;100505.38;5036788;28;20101;-63
2021/06/16 09:23:20;;;;;;;16.13;7.70;;;;;;;30.85;38.26;100510.69;5045259;28;20094;-61
2021/06/16 09:26:08;;;;;;;11.17;7.33;;;;;;;31.06;37.68;100504.31;5045572;28;20076;-63
2021/06/16 09:28:35;;;;;;;9.10;7.47;;;;;;;31.25;36.50;100498.13;5045388;28;20295;-63
2021/06/16 09:31:02;;;;;;;6.70;6.03;;;;;;;31.07;37.42;100497.88;5045593;28;20071;-63
2021/06/16 09:33:30;;;;;;;16.75;7.07;;;;;;;31.03;39.10;100492.06;5044916;28;20044;-63
2021/06/16 09:35:57;;;;;;;8.48;6.65;;;;;;;31.01;36.91;100501.41;5045898;28;20057;-63
2021/06/16 09:38:31;;;;;;;7.78;6.97;;;;;;;30.78;37.62;100496.34;5046962;28;20120;-63
2021/06/16 09:41:01;;;;;;;19.08;6.55;;;;;;;30.75;37.96;100494.91;5044882;28;20503;-63
2021/06/16 09:43:30;;;;;;;10.35;7.40;;;;;;;30.69;38.03;100500.25;5045413;28;20079;-63
2021/06/16 09:45:58;;;;;;;8.13;6.68;;;;;;;30.68;37.41;100499.44;5045185;28;20055;-63
2021/06/16 09:48:29;;;;;;;12.77;6.32;;;;;;;30.69;37.58;100494.88;5045059;28;20079;-63
2021/06/16 09:51:11;;;;;;;6.90;6.28;;;;;;;30.65;37.10;100499.81;5045392;28;20400;-63
2021/06/16 09:54:18;;;;;;;5.78;5.15;;;;;;;30.61;36.60;100487.78;5044488;28;20052;-63
2021/06/16 09:56:59;;;;;;;7.85;6.22;;;;;;;30.47;36.75;100491.47;5048352;28;20041;-63
2021/06/16 09:59:35;;;;;;;13.55;6.78;;;;;;;30.60;36.49;100498.75;5049218;28;20041;-63
2021/06/16 10:02:03;;;;;;;11.32;5.72;;;;;;;30.50;36.68;100494.59;5049042;28;20048;-62
2021/06/16 10:05:00;;;;;;;6.97;6.28;;;;;;;30.44;36.44;100490.00;5048985;28;20041;-63
2021/06/16 10:07:32;;;;;;;6.93;5.80;;;;;;;30.25;37.12;100494.25;5048090;28;20036;-62
2021/06/16 10:10:05;;;;;;;9.50;5.50;;;;;;;30.45;37.47;100499.72;5049439;28;20114;-63
2021/06/16 10:12:40;;;;;;;7.03;5.18;;;;;;;30.31;36.59;100510.63;5048421;28;20045;-63
2021/06/16 10:15:19;;;;;;;6.25;5.57;;;;;;;30.30;36.56;100500.91;5049029;28;20037;-63
2021/06/16 10:17:47;;;;;;;8.38;5.40;;;;;;;30.20;36.23;100502.13;5047502;28;20037;-63
2021/06/16 10:20:15;;;;;;;7.03;5.40;;;;;;;30.32;35.57;100494.31;5049044;28;20043;-63
2021/06/16 10:22:43;;;;;;;7.43;5.22;;;;;;;30.41;36.09;100492.25;5048519;28;20040;-63
2021/06/16 10:25:11;;;;;;;10.30;5.75;;;;;;;30.40;35.38;100495.97;5048950;28;20086;-63
2021/06/16 10:27:41;;;;;;;6.90;6.03;;;;;;;30.33;36.52;100489.75;5062608;28;20045;-63
2021/06/16 10:30:12;;;;;;;8.27;5.63;;;;;;;30.30;36.46;100490.97;5047713;28;20095;-62
2021/06/16 10:32:47;;;;;;;8.43;5.93;;;;;;;30.57;36.41;100483.84;5047580;28;20054;-63
2021/06/16 10:35:35;;;;;;;17.88;6.30;;;;;;;30.50;37.27;100485.69;5048453;28;20045;-62
2021/06/16 10:38:18;;;;;;;10.55;5.75;;;;;;;30.52;36.29;100483.63;5052396;28;20056;-62
2021/06/16 10:40:48;;;;;;;12.85;6.45;;;;;;;30.72;36.52;100479.16;5046945;28;20045;-63
2021/06/16 10:43:34;;;;;;;5.65;5.05;;;;;;;30.88;36.08;100472.56;5047744;28;20422;-63
2021/06/16 10:46:00;;;;;;;6.78;6.13;;;;;;;30.87;36.14;100478.16;5048922;28;20487;-63
2021/06/16 10:48:43;;;;;;;7.70;5.45;;;;;;;30.60;35.85;100485.31;5048179;28;21608;-63
2021/06/16 10:51:22;;;;;;;15.23;5.38;;;;;;;30.73;35.92;100475.44;5052754;28;20041;-63
2021/06/16 10:54:09;;;;;;;10.77;5.90;;;;;;;30.61;36.40;100466.28;5047556;28;20059;-63
2021/06/16 10:56:54;;;;;;;9.15;6.03;;;;;;;30.70;36.79;100469.66;5046910;28;20526;-62
2021/06/16 10:59:47;;;;;;;7.28;5.47;;;;;;;30.82;37.32;100465.31;5049382;28;20152;-63
2021/06/16 11:02:31;;;;;;;7.90;5.45;;;;;;;30.82;37.50;100461.81;5048408;28;20053;-63
2021/06/16 11:05:21;;;;;;;14.75;6.88;;;;;;;30.49;36.44;100457.13;5047827;28;20503;-63
2021/06/16 11:07:49;;;;;;;8.15;6.13;;;;;;;30.49;36.08;100465.19;5047552;28;20045;-62
2021/06/16 11:10:15;;;;;;;7.07;6.35;;;;;;;30.51;36.25;100463.94;5047538;28;20090;-63
2021/06/16 11:12:44;;;;;;;6.97;6.07;;;;;;;30.61;35.79;100460.06;5046851;28;20055;-59
2021/06/16 11:15:23;;;;;;;8.57;6.35;;;;;;;30.85;36.04;100464.09;5047319;28;20041;-59
2021/06/16 11:17:52;;;;;;;11.38;7.00;;;;;;;30.83;35.33;100461.59;5047507;28;20041;-62
2021/06/16 11:20:24;;;;;;;7.60;5.88;;;;;;;30.76;35.43;100460.75;5047704;28;20044;-61
2021/06/16 11:22:56;;;;;;;18.35;7.78;;;;;;;30.86;35.31;100457.69;5047799;28;20569;-62
2021/06/16 11:25:52;;;;;;;8.18;6.18;;;;;;;30.66;35.98;100458.41;5048908;28;20040;-60